Time;durP1;ratioP1;P1;durP2;ratioP2;P2;SDS_P1;SDS_P2;PMS_P1;PMS_P2;Temp;Humidity;BMP_temperature;BMP_pressure;BME280_temperature;BME280_humidity;BME280_pressure;Samples;Min_cycle;Max_cycle;Signal;HPM_P1;HPM_P2
2021/05/19 00:01:52;;;;;;;1.35;0.40;;;17.30;50.00;;;;;;5061100;28;20536;-71
2021/05/19 00:04:17;;;;;;;0.80;0.30;;;17.30;50.40;;;;;;5041807;28;20068;-71
2021/05/19 00:06:44;;;;;;;1.60;0.70;;;17.20;50.30;;;;;;5036541;28;20045;-71
2021/05/19 00:09:12;;;;;;;1.02;0.50;;;17.20;50.10;;;;;;5035225;28;20037;-71
2021/05/19 00:11:39;;;;;;;1.95;1.02;;;17.20;49.90;;;;;;5036645;28;20041;-71
2021/05/19 00:14:07;;;;;;;0.93;0.43;;;17.20;50.10;;;;;;5044187;28;20040;-71
2021/05/19 00:16:33;;;;;;;5.55;0.93;;;17.10;50.30;;;;;;5035634;28;20468;-72
2021/05/19 00:18:59;;;;;;;1.13;0.70;;;17.10;50.50;;;;;;5037262;28;20116;-71
2021/05/19 00:21:25;;;;;;;3.08;0.93;;;17.10;50.70;;;;;;5048427;28;20054;-71
2021/05/19 00:23:51;;;;;;;1.65;0.68;;;17.10;51.30;;;;;;5034968;28;20087;-71
2021/05/19 00:26:17;;;;;;;2.03;0.77;;;17.00;50.90;;;;;;5033590;28;20060;-71
2021/05/19 00:28:45;;;;;;;4.07;0.75;;;17.00;51.20;;;;;;5038955;28;20041;-71
2021/05/19 00:31:11;;;;;;;1.25;1.00;;;17.00;51.60;;;;;;5032658;28;20037;-71
2021/05/19 00:33:37;;;;;;;1.58;0.60;;;17.00;51.70;;;;;;5036065;28;20041;-71
2021/05/19 00:36:03;;;;;;;2.83;0.77;;;16.90;51.40;;;;;;5038715;28;20045;-71
2021/05/19 00:38:29;;;;;;;2.03;0.80;;;16.90;51.60;;;;;;5049707;28;20052;-70
2021/05/19 00:40:54;;;;;;;3.13;0.90;;;16.90;51.50;;;;;;5040964;28;20487;-70
2021/05/19 00:43:22;;;;;;;2.17;0.70;;;16.90;51.60;;;;;;5033571;28;20120;-71
2021/05/19 00:45:49;;;;;;;2.42;1.00;;;16.90;51.40;;;;;;5040591;28;20062;-71
2021/05/19 00:48:14;;;;;;;3.45;1.00;;;16.80;51.30;;;;;;5033019;28;20034;-71
2021/05/19 00:50:40;;;;;;;2.47;1.08;;;16.90;50.60;;;;;;5034981;28;20045;-71
2021/05/19 00:53:07;;;;;;;7.80;0.93;;;16.90;50.40;;;;;;5034660;28;20518;-71
2021/05/19 00:55:32;;;;;;;3.00;0.82;;;16.90;50.90;;;;;;5031712;28;20502;-71
2021/05/19 00:57:58;;;;;;;1.05;0.60;;;16.80;51.30;;;;;;5030403;28;20037;-71
2021/05/19 01:00:28;;;;;;;2.00;0.50;;;16.80;50.40;;;;;;5040318;28;20037;-70
2021/05/19 01:02:54;;;;;;;3.53;0.47;;;16.70;48.10;;;;;;5034618;28;20064;-70
2021/05/19 01:05:28;;;;;;;3.13;0.50;;;16.70;49.50;;;;;;5036780;28;20943;-70
2021/05/19 01:10:39;;;;;;;0.70;0.50;;;16.60;50.30;;;;;;5034565;28;20049;-70
2021/05/19 01:13:05;;;;;;;0.70;0.60;;;16.60;50.40;;;;;;5035462;28;20035;-70
2021/05/19 01:15:31;;;;;;;0.40;0.20;;;16.60;50.20;;;;;;5037228;28;20041;-71
2021/05/19 01:17:58;;;;;;;1.85;0.55;;;16.60;50.20;;;;;;5034703;28;20499;-70
2021/05/19 01:20:24;;;;;;;0.45;0.20;;;16.60;49.00;;;;;;5036260;28;20407;-69
2021/05/19 01:22:49;;;;;;;1.05;0.50;;;16.60;48.40;;;;;;5033569;28;20042;-70
2021/05/19 01:25:15;;;;;;;1.50;0.70;;;16.50;48.30;;;;;;5030933;28;20553;-70
2021/05/19 01:27:41;;;;;;;1.25;0.40;;;16.60;48.60;;;;;;5040227;28;20120;-70
2021/05/19 01:30:09;;;;;;;1.70;0.30;;;16.60;48.40;;;;;;5035435;28;20033;-70
2021/05/19 01:32:35;;;;;;;2.60;0.52;;;16.60;48.70;;;;;;5038526;28;20052;-70
2021/05/19 01:35:01;;;;;;;1.35;0.32;;;16.50;48.20;;;;;;5035566;28;20049;-71
2021/05/19 01:37:26;;;;;;;2.08;0.47;;;16.50;49.40;;;;;;5040791;28;20088;-70
2021/05/19 01:39:52;;;;;;;1.85;0.32;;;16.50;48.10;;;;;;5036689;28;20037;-70
2021/05/19 01:42:18;;;;;;;0.93;0.30;;;16.50;48.20;;;;;;5042824;28;20041;-70
2021/05/19 01:44:44;;;;;;;0.70;0.45;;;16.50;48.00;;;;;;5028182;28;20048;-71
2021/05/19 01:47:10;;;;;;;0.80;0.47;;;16.40;47.40;;;;;;5045505;28;20060;-71
2021/05/19 01:49:41;;;;;;;2.03;0.65;;;16.40;47.80;;;;;;5035904;28;20045;-71
2021/05/19 01:52:08;;;;;;;3.20;0.68;;;16.40;47.50;;;;;;5040287;28;20468;-70
2021/05/19 01:54:36;;;;;;;0.93;0.40;;;16.30;47.80;;;;;;5038610;28;20479;-70
2021/05/19 01:57:02;;;;;;;0.95;0.35;;;16.40;47.60;;;;;;5033523;28;20051;-72
2021/05/19 01:59:28;;;;;;;2.05;0.20;;;16.40;47.20;;;;;;5038732;28;20426;-70
2021/05/19 02:01:53;;;;;;;0.20;0.10;;;16.40;47.20;;;;;;5040843;28;20036;-70
2021/05/19 02:04:19;;;;;;;2.58;0.25;;;16.30;47.00;;;;;;5042785;28;20041;-71
2021/05/19 02:06:47;;;;;;;0.32;0.22;;;16.30;46.40;;;;;;5041561;28;20043;-71
2021/05/19 02:09:14;;;;;;;0.30;0.20;;;16.20;46.30;;;;;;5040235;28;20041;-70
2021/05/19 02:11:40;;;;;;;0.57;0.43;;;16.30;46.80;;;;;;5038925;28;20049;-70
2021/05/19 02:14:06;;;;;;;1.92;0.30;;;16.30;47.50;;;;;;5041346;28;20041;-70
2021/05/19 02:16:31;;;;;;;0.50;0.50;;;16.10;46.30;;;;;;5039615;28;20041;-70
2021/05/19 02:18:58;;;;;;;0.75;0.45;;;16.20;47.00;;;;;;5037993;28;20044;-71
2021/05/19 02:21:29;;;;;;;1.15;0.47;;;16.20;46.90;;;;;;5043525;28;20040;-70
2021/05/19 02:23:55;;;;;;;0.47;0.30;;;16.20;45.90;;;;;;5055764;28;20556;-70
2021/05/19 02:26:21;;;;;;;0.50;0.50;;;16.20;46.40;;;;;;5036870;28;20041;-70
2021/05/19 02:28:46;;;;;;;0.50;0.30;;;16.20;46.30;;;;;;5046405;28;20091;-70
2021/05/19 02:31:13;;;;;;;1.10;0.20;;;16.20;46.60;;;;;;5038514;28;20098;-70
2021/05/19 02:33:38;;;;;;;0.63;0.40;;;16.20;46.90;;;;;;5042498;28;20033;-70
2021/05/19 02:36:05;;;;;;;0.63;0.20;;;16.10;46.50;;;;;;5038013;28;20056;-70
2021/05/19 02:38:32;;;;;;;0.45;0.32;;;16.10;46.70;;;;;;5044834;28;20037;-70
2021/05/19 02:40:58;;;;;;;0.50;0.30;;;16.10;46.20;;;;;;5042188;28;20040;-71
2021/05/19 02:43:23;;;;;;;0.47;0.20;;;16.20;48.30;;;;;;5042511;28;20406;-70
2021/05/19 02:45:49;;;;;;;0.80;0.30;;;16.20;49.60;;;;;;5041896;28;20498;-70
2021/05/19 02:48:15;;;;;;;1.40;0.30;;;16.10;50.30;;;;;;5032683;28;20049;-71
2021/05/19 02:50:41;;;;;;;1.35;0.32;;;16.00;47.50;;;;;;5042116;28;20475;-71
2021/05/19 02:53:07;;;;;;;1.20;0.40;;;16.00;47.60;;;;;;5031879;28;20046;-71
2021/05/19 02:55:33;;;;;;;0.50;0.20;;;15.90;47.60;;;;;;5039454;28;20055;-71
2021/05/19 02:57:59;;;;;;;1.88;0.38;;;15.90;53.80;;;;;;5035045;28;20060;-69
2021/05/19 03:00:25;;;;;;;0.57;0.20;;;15.90;47.10;;;;;;5038469;28;20486;-70
2021/05/19 03:02:50;;;;;;;2.88;0.77;;;15.90;47.30;;;;;;5032771;28;20944;-70
2021/05/19 03:05:16;;;;;;;0.52;0.20;;;15.80;47.90;;;;;;5042118;28;20041;-70
2021/05/19 03:07:43;;;;;;;1.20;0.50;;;15.90;47.40;;;;;;5032195;28;20056;-71
2021/05/19 03:10:10;;;;;;;1.25;0.30;;;15.90;47.70;;;;;;5036062;28;20094;-70
2021/05/19 03:12:36;;;;;;;0.98;0.30;;;15.80;47.60;;;;;;5037238;28;20041;-70
2021/05/19 03:15:02;;;;;;;1.55;0.57;;;15.80;48.10;;;;;;5043842;28;20505;-70
2021/05/19 03:17:27;;;;;;;1.38;0.30;;;15.90;50.80;;;;;;5035000;28;20033;-70
2021/05/19 03:19:53;;;;;;;0.95;0.20;;;15.70;47.40;;;;;;5039092;28;20086;-69
2021/05/19 03:22:19;;;;;;;0.73;0.20;;;15.70;46.90;;;;;;5044426;28;20386;-70
2021/05/19 03:24:44;;;;;;;1.08;0.40;;;15.80;47.70;;;;;;5036082;28;20095;-70
2021/05/19 03:27:10;;;;;;;0.43;0.28;;;15.80;47.70;;;;;;5036417;28;20107;-70
2021/05/19 03:29:36;;;;;;;1.05;0.20;;;15.70;46.20;;;;;;5045921;28;20107;-71
2021/05/19 03:32:02;;;;;;;2.63;0.20;;;15.70;45.90;;;;;;5037191;28;20108;-71
2021/05/19 03:34:28;;;;;;;1.95;0.30;;;15.70;46.40;;;;;;5035508;28;20029;-72
2021/05/19 03:36:54;;;;;;;1.30;0.20;;;15.60;46.30;;;;;;5041545;28;20067;-71
2021/05/19 03:39:20;;;;;;;0.40;0.30;;;15.70;45.90;;;;;;5038541;28;20068;-71
2021/05/19 03:41:46;;;;;;;0.90;0.20;;;15.70;46.00;;;;;;5054833;28;20037;-71
2021/05/19 03:44:11;;;;;;;0.60;0.20;;;15.60;45.60;;;;;;5035868;28;20044;-72
2021/05/19 03:46:37;;;;;;;1.05;0.40;;;15.60;46.10;;;;;;5043840;28;20044;-72
2021/05/19 03:49:04;;;;;;;0.25;0.25;;;15.60;45.70;;;;;;5039168;28;20044;-72
2021/05/19 03:51:30;;;;;;;0.93;0.17;;;15.60;45.50;;;;;;5044717;28;20036;-71
2021/05/19 03:53:56;;;;;;;0.10;0.10;;;15.60;45.30;;;;;;5036019;28;20498;-71
2021/05/19 03:56:22;;;;;;;0.30;0.20;;;15.60;45.60;;;;;;5041522;28;20045;-72
2021/05/19 03:58:48;;;;;;;1.35;0.30;;;15.50;45.20;;;;;;5047162;28;20033;-71
2021/05/19 04:01:14;;;;;;;0.10;0.10;;;15.50;45.80;;;;;;5038110;28;20085;-71
2021/05/19 04:03:40;;;;;;;1.27;0.17;;;15.60;46.00;;;;;;5040217;28;20037;-71
2021/05/19 04:06:06;;;;;;;0.40;0.10;;;15.60;45.00;;;;;;5036229;28;20375;-71
2021/05/19 04:08:37;;;;;;;0.20;0.10;;;15.60;45.30;;;;;;5040477;28;20049;-71
2021/05/19 04:14:25;;;;;;;0.50;0.28;;;15.60;44.90;;;;;;4950030;28;20055;-70
2021/05/19 04:16:50;;;;;;;0.75;0.15;;;15.60;45.90;;;;;;5040083;28;20029;-71
2021/05/19 04:19:16;;;;;;;0.50;0.20;;;15.50;45.60;;;;;;5046604;28;20125;-71
2021/05/19 04:21:42;;;;;;;0.40;0.15;;;15.60;46.20;;;;;;5056634;28;20041;-71
2021/05/19 04:24:08;;;;;;;1.70;0.30;;;15.50;46.20;;;;;;5034523;28;20501;-71
2021/05/19 04:26:33;;;;;;;0.40;0.20;;;15.50;46.50;;;;;;5035588;28;20128;-71
2021/05/19 04:28:59;;;;;;;0.82;0.45;;;15.50;46.40;;;;;;5040430;28;20149;-70
2021/05/19 04:31:25;;;;;;;0.38;0.28;;;15.60;46.60;;;;;;5039769;28;20037;-71
2021/05/19 04:33:50;;;;;;;0.60;0.40;;;15.50;47.00;;;;;;5040554;28;20452;-70
2021/05/19 04:36:16;;;;;;;0.75;0.22;;;15.60;46.70;;;;;;5033626;28;20533;-71
2021/05/19 04:38:42;;;;;;;1.17;0.50;;;15.60;47.50;;;;;;5045225;28;20071;-71
2021/05/19 04:41:08;;;;;;;2.15;0.30;;;15.60;47.80;;;;;;5034425;28;20037;-71
2021/05/19 04:43:34;;;;;;;1.55;0.55;;;15.60;47.60;;;;;;5043401;28;20052;-71
2021/05/19 04:46:00;;;;;;;1.60;0.38;;;15.60;47.20;;;;;;5035759;28;20044;-71
2021/05/19 04:48:27;;;;;;;1.92;0.35;;;15.60;47.60;;;;;;5042085;28;20394;-71
2021/05/19 04:50:53;;;;;;;2.30;0.45;;;15.60;48.10;;;;;;5040958;28;20042;-71
2021/05/19 04:53:19;;;;;;;1.10;0.47;;;15.70;48.50;;;;;;5038609;28;20041;-71
2021/05/19 04:55:45;;;;;;;1.35;0.77;;;15.60;47.90;;;;;;5038965;28;20059;-71
2021/05/19 04:58:11;;;;;;;1.58;0.75;;;15.70;48.50;;;;;;5037335;28;20149;-71
2021/05/19 05:00:37;;;;;;;6.75;1.58;;;15.70;49.00;;;;;;5040263;28;20070;-71
2021/05/19 05:03:08;;;;;;;3.38;1.73;;;15.70;50.20;;;;;;5037735;28;20121;-71
2021/05/19 05:05:34;;;;;;;3.60;1.55;;;15.70;51.20;;;;;;5040849;28;20045;-71
2021/05/19 05:08:00;;;;;;;3.85;1.85;;;15.70;51.60;;;;;;5032297;28;20121;-71
2021/05/19 05:10:26;;;;;;;4.90;1.40;;;15.70;51.60;;;;;;5036046;28;20119;-71
2021/05/19 05:12:51;;;;;;;8.35;2.10;;;15.70;52.00;;;;;;5035941;28;20041;-71
2021/05/19 05:15:18;;;;;;;2.03;1.10;;;15.80;52.30;;;;;;5046886;28;20087;-71
2021/05/19 05:17:44;;;;;;;2.05;1.40;;;15.80;52.50;;;;;;5039981;28;20045;-71
2021/05/19 05:20:11;;;;;;;3.30;1.65;;;15.70;52.90;;;;;;5039188;28;20052;-71
2021/05/19 05:22:37;;;;;;;13.68;2.97;;;15.70;53.20;;;;;;5040381;28;20047;-71
2021/05/19 05:25:05;;;;;;;4.18;2.00;;;15.80;53.80;;;;;;5038349;28;20310;-71
2021/05/19 05:27:31;;;;;;;5.40;2.03;;;15.80;54.40;;;;;;5036789;28;20049;-71
2021/05/19 05:29:57;;;;;;;5.07;2.25;;;15.90;54.30;;;;;;5039520;28;20094;-71
2021/05/19 05:32:22;;;;;;;4.93;2.50;;;15.80;54.60;;;;;;5048816;28;20067;-71
2021/05/19 05:34:48;;;;;;;4.70;2.13;;;15.80;54.70;;;;;;5040419;28;20045;-71
2021/05/19 05:37:14;;;;;;;7.80;2.38;;;15.80;54.90;;;;;;5057853;28;20053;-71
2021/05/19 05:39:39;;;;;;;4.22;2.60;;;15.90;55.60;;;;;;5040223;28;20094;-71
2021/05/19 05:42:06;;;;;;;7.00;2.72;;;15.80;55.70;;;;;;5039635;28;20045;-71
2021/05/19 05:44:32;;;;;;;5.22;3.70;;;15.90;56.00;;;;;;5039818;28;20092;-71
2021/05/19 05:46:58;;;;;;;6.57;3.63;;;15.90;55.80;;;;;;5045282;28;20087;-71
2021/05/19 05:49:24;;;;;;;11.02;3.50;;;15.90;56.30;;;;;;5039982;28;20040;-68
2021/05/19 05:51:49;;;;;;;7.18;3.45;;;16.00;56.50;;;;;;5045247;28;20044;-71
2021/05/19 05:54:15;;;;;;;7.55;4.82;;;16.10;56.80;;;;;;5025637;28;20037;-71
2021/05/19 05:56:41;;;;;;;5.97;3.65;;;16.00;56.90;;;;;;5036855;28;20045;-71
2021/05/19 05:59:08;;;;;;;6.82;3.60;;;16.00;57.30;;;;;;5035372;28;20040;-72
2021/05/19 06:01:34;;;;;;;6.57;4.13;;;16.10;57.60;;;;;;5053480;28;20041;-72
2021/05/19 06:04:00;;;;;;;4.65;4.05;;;16.10;57.30;;;;;;5035604;28;20044;-72
2021/05/19 06:06:25;;;;;;;6.85;3.90;;;16.20;57.70;;;;;;5036807;28;20686;-71
2021/05/19 06:08:51;;;;;;;6.75;4.22;;;16.20;57.70;;;;;;5043011;28;20034;-72
2021/05/19 06:11:17;;;;;;;7.65;4.60;;;16.20;58.00;;;;;;5038764;28;20038;-72
2021/05/19 06:13:43;;;;;;;9.05;4.68;;;16.30;57.80;;;;;;5041782;28;20098;-72
2021/05/19 06:16:08;;;;;;;11.98;4.40;;;16.30;57.80;;;;;;5035118;28;20033;-72
2021/05/19 06:18:34;;;;;;;9.20;4.38;;;16.30;58.00;;;;;;5043247;28;20036;-72
2021/05/19 06:21:00;;;;;;;9.77;5.30;;;16.30;58.10;;;;;;5038232;28;20040;-72
2021/05/19 06:23:26;;;;;;;8.32;4.82;;;16.40;57.90;;;;;;5042700;28;20052;-69
2021/05/19 06:25:51;;;;;;;7.78;4.65;;;16.40;58.10;;;;;;5037336;28;20037;-70
2021/05/19 06:28:17;;;;;;;7.25;5.15;;;16.40;58.10;;;;;;5040672;28;20124;-70
2021/05/19 06:30:43;;;;;;;13.52;5.65;;;16.40;58.10;;;;;;5035426;28;20045;-70
2021/05/19 06:33:08;;;;;;;8.57;4.57;;;16.50;58.10;;;;;;5041930;28;20087;-70
2021/05/19 06:35:34;;;;;;;7.53;5.75;;;16.60;58.90;;;;;;5038224;28;20075;-71
2021/05/19 06:38:00;;;;;;;7.68;4.78;;;16.60;58.60;;;;;;5040108;28;20555;-71
2021/05/19 06:40:25;;;;;;;8.98;4.78;;;16.70;58.30;;;;;;5057940;28;20483;-70
2021/05/19 06:42:51;;;;;;;9.27;5.10;;;16.70;58.50;;;;;;5040724;28;20033;-71
2021/05/19 06:45:17;;;;;;;11.43;4.88;;;16.70;58.20;;;;;;5042239;28;20037;-69
2021/05/19 06:47:43;;;;;;;5.53;4.57;;;16.70;58.20;;;;;;5036234;28;20041;-69
2021/05/19 06:50:09;;;;;;;10.60;5.50;;;16.90;58.40;;;;;;5038083;28;20099;-69
2021/05/19 06:52:35;;;;;;;9.63;5.57;;;16.90;58.00;;;;;;5039248;28;20033;-69
2021/05/19 06:55:02;;;;;;;11.48;5.90;;;16.90;57.80;;;;;;5039602;28;20090;-68
2021/05/19 06:57:27;;;;;;;10.93;5.97;;;17.00;58.10;;;;;;5037727;28;20033;-69
2021/05/19 06:59:53;;;;;;;9.52;4.68;;;17.00;57.50;;;;;;5047964;28;20110;-69
2021/05/19 07:02:19;;;;;;;8.85;5.88;;;17.00;58.00;;;;;;5037663;28;20064;-69
2021/05/19 07:04:45;;;;;;;10.45;5.88;;;17.00;58.10;;;;;;5039422;28;20490;-69
2021/05/19 07:07:10;;;;;;;9.73;5.60;;;17.10;58.00;;;;;;5034072;28;20041;-69
2021/05/19 07:09:36;;;;;;;10.32;6.15;;;17.10;57.70;;;;;;5041021;28;20056;-69
2021/05/19 07:12:03;;;;;;;11.55;6.35;;;17.10;57.40;;;;;;5040713;28;20383;-68
2021/05/19 07:14:29;;;;;;;10.82;5.90;;;17.20;57.50;;;;;;5038695;28;20051;-69
2021/05/19 07:16:55;;;;;;;15.15;6.72;;;17.10;57.30;;;;;;5036357;28;20558;-69
2021/05/19 07:19:22;;;;;;;12.00;7.03;;;17.20;57.60;;;;;;5039172;28;20192;-69
2021/05/19 07:21:48;;;;;;;8.57;4.78;;;17.20;57.40;;;;;;5051731;28;20045;-68
2021/05/19 07:24:15;;;;;;;11.98;4.93;;;17.30;56.40;;;;;;5011325;28;612499;-69
2021/05/19 07:26:43;;;;;;;7.00;3.53;;;17.30;55.30;;;;;;5039824;28;20029;-69
2021/05/19 07:29:10;;;;;;;3.42;2.20;;;17.30;53.80;;;;;;5040355;28;20089;-69
2021/05/19 07:31:36;;;;;;;6.80;3.67;;;17.40;54.00;;;;;;5037131;28;20040;-69
2021/05/19 07:34:03;;;;;;;8.88;3.40;;;17.40;53.90;;;;;;5031737;28;20030;-69
2021/05/19 07:36:29;;;;;;;3.65;3.10;;;17.50;53.00;;;;;;5039330;28;20091;-69
2021/05/19 07:38:55;;;;;;;5.72;4.40;;;17.50;52.80;;;;;;5037535;28;20040;-67
2021/05/19 07:41:23;;;;;;;8.73;4.30;;;17.50;53.20;;;;;;5034594;28;20037;-69
2021/05/19 07:43:49;;;;;;;6.50;3.72;;;17.60;52.80;;;;;;5036836;28;20510;-69
2021/05/19 07:46:15;;;;;;;7.30;3.75;;;17.70;52.90;;;;;;5042974;28;20030;-69
2021/05/19 07:49:06;;;;;;;7.45;3.22;;;17.70;52.90;;;;;;5030888;28;20425;-69
2021/05/19 07:51:31;;;;;;;5.03;4.10;;;17.70;51.20;;;;;;5017756;28;20161;-68
2021/05/19 07:53:57;;;;;;;6.45;4.47;;;17.70;52.00;;;;;;5033263;28;20137;-69
2021/05/19 07:56:33;;;;;;;6.90;4.35;;;17.70;52.30;;;;;;5044939;28;20037;-69
2021/05/19 08:03:53;;;;;;;8.32;3.85;;;17.90;51.40;;;;;;5039239;28;20041;-69
2021/05/19 08:06:20;;;;;;;9.05;4.28;;;17.90;51.50;;;;;;5038892;28;20491;-69
2021/05/19 08:08:46;;;;;;;9.75;4.88;;;18.00;51.00;;;;;;5037942;28;20121;-70
2021/05/19 08:11:15;;;;;;;9.80;5.05;;;18.10;51.30;;;;;;5042712;28;20375;-70
2021/05/19 08:13:40;;;;;;;7.72;4.55;;;18.10;51.00;;;;;;5041368;28;20620;-70
2021/05/19 08:16:07;;;;;;;6.03;4.53;;;18.20;51.10;;;;;;5034299;28;20041;-70
2021/05/19 08:18:33;;;;;;;8.93;4.78;;;18.20;50.60;;;;;;5037047;28;20562;-70
2021/05/19 08:20:59;;;;;;;7.88;4.75;;;18.30;50.60;;;;;;5046751;28;20120;-70
2021/05/19 08:23:25;;;;;;;8.43;4.97;;;18.30;50.50;;;;;;5038465;28;20056;-69
2021/05/19 08:25:51;;;;;;;8.00;4.63;;;18.30;50.80;;;;;;5037632;28;20029;-70
2021/05/19 08:28:16;;;;;;;9.57;4.03;;;18.40;50.20;;;;;;5036724;28;20037;-70
2021/05/19 08:30:42;;;;;;;9.27;5.20;;;18.40;49.80;;;;;;5037153;28;20547;-70
2021/05/19 08:33:07;;;;;;;8.80;5.07;;;18.40;49.70;;;;;;5036455;28;20049;-69
2021/05/19 08:35:33;;;;;;;11.30;5.85;;;18.50;49.40;;;;;;5033850;28;20494;-69
2021/05/19 08:37:59;;;;;;;14.27;8.15;;;18.50;50.30;;;;;;5034825;28;20391;-69
2021/05/19 08:40:25;;;;;;;12.48;6.18;;;18.60;49.60;;;;;;5036244;28;20492;-69
2021/05/19 08:42:51;;;;;;;12.88;7.18;;;18.60;49.80;;;;;;5038138;28;20033;-69
2021/05/19 08:45:17;;;;;;;5.95;4.00;;;18.70;49.90;;;;;;5035662;28;20045;-69
2021/05/19 08:47:43;;;;;;;5.47;3.00;;;18.70;48.00;;;;;;5038580;28;20483;-70
2021/05/19 08:50:09;;;;;;;6.78;3.47;;;18.70;45.90;;;;;;5043211;28;20055;-69
2021/05/19 08:52:40;;;;;;;13.73;4.00;;;18.70;45.10;;;;;;5034703;28;20052;-70
2021/05/19 08:55:14;;;;;;;5.65;3.78;;;18.70;45.40;;;;;;5041026;28;20049;-69
2021/05/19 08:57:43;;;;;;;5.70;3.03;;;18.70;45.20;;;;;;5035329;28;20158;-69
2021/05/19 09:00:10;;;;;;;9.30;4.00;;;18.70;45.50;;;;;;5039113;28;20037;-69
2021/05/19 09:02:36;;;;;;;4.20;3.53;;;18.90;45.50;;;;;;5038676;28;20045;-68
2021/05/19 09:05:02;;;;;;;9.82;5.10;;;19.00;45.70;;;;;;5041422;28;20517;-69
2021/05/19 09:07:28;;;;;;;7.70;3.80;;;19.00;44.70;;;;;;5036568;28;20033;-68
2021/05/19 09:09:54;;;;;;;6.18;3.17;;;19.00;43.30;;;;;;5043270;28;20045;-65
2021/05/19 09:12:20;;;;;;;7.55;3.47;;;19.00;43.30;;;;;;5034661;28;20124;-68
2021/05/19 09:14:51;;;;;;;4.97;3.17;;;19.00;44.00;;;;;;5040580;28;20547;-69
2021/05/19 09:17:31;;;;;;;5.97;2.92;;;19.10;42.20;;;;;;5034885;28;20033;-70
2021/05/19 09:20:02;;;;;;;6.32;3.47;;;19.10;42.50;;;;;;5037785;28;20136;-69
2021/05/19 09:22:31;;;;;;;8.55;3.50;;;19.20;43.70;;;;;;5034949;28;20590;-69
2021/05/19 09:24:58;;;;;;;4.85;2.67;;;19.30;44.10;;;;;;5034669;28;20042;-69
2021/05/19 09:27:37;;;;;;;10.32;3.58;;;19.40;42.90;;;;;;5038407;28;20483;-69
2021/05/19 09:30:03;;;;;;;5.15;3.28;;;19.40;42.20;;;;;;5016901;28;20033;-68
2021/05/19 09:32:29;;;;;;;7.05;2.42;;;19.30;42.50;;;;;;5033395;28;20060;-69
2021/05/19 09:35:00;;;;;;;7.13;2.70;;;19.40;42.30;;;;;;5036641;28;20806;-68
2021/05/19 09:37:30;;;;;;;6.10;3.30;;;19.40;42.10;;;;;;5034442;28;20050;-68
2021/05/19 09:39:58;;;;;;;7.07;2.92;;;19.40;42.40;;;;;;5044201;28;20036;-68
2021/05/19 09:42:51;;;;;;;3.92;2.78;;;19.60;42.60;;;;;;5029815;28;20064;-69
2021/05/19 09:45:27;;;;;;;6.57;2.85;;;19.70;41.70;;;;;;5018732;28;20083;-69
2021/05/19 09:47:55;;;;;;;4.13;2.47;;;19.70;41.30;;;;;;5028702;28;20030;-70
2021/05/19 09:50:33;;;;;;;4.38;2.97;;;19.70;41.40;;;;;;5038990;28;20029;-70
2021/05/19 09:53:16;;;;;;;5.82;2.10;;;19.90;40.50;;;;;;5014449;28;20542;-69
2021/05/19 09:56:02;;;;;;;7.63;2.47;;;19.90;39.20;;;;;;5033290;28;20057;-70
2021/05/19 09:58:37;;;;;;;4.82;2.67;;;20.00;38.80;;;;;;5032542;28;20044;-67
2021/05/19 10:01:06;;;;;;;3.85;1.60;;;20.00;39.10;;;;;;5043959;28;20041;-69
2021/05/19 10:03:34;;;;;;;4.57;2.40;;;20.10;39.60;;;;;;5033170;28;20037;-68
2021/05/19 10:06:15;;;;;;;3.67;1.95;;;20.10;39.40;;;;;;5035966;28;20410;-68
2021/05/19 10:08:40;;;;;;;5.15;1.95;;;20.20;37.80;;;;;;5038970;28;20095;-69
2021/05/19 10:11:06;;;;;;;4.38;1.88;;;20.30;38.10;;;;;;5045282;28;20037;-68
2021/05/19 10:13:33;;;;;;;3.53;1.80;;;20.40;38.40;;;;;;5038401;28;20033;-69
2021/05/19 10:16:03;;;;;;;3.85;2.15;;;20.40;38.50;;;;;;5042671;28;20033;-68
2021/05/19 10:18:37;;;;;;;4.75;1.92;;;20.50;38.60;;;;;;5040263;28;20041;-68
2021/05/19 10:21:03;;;;;;;4.00;2.15;;;20.50;44.40;;;;;;5054304;28;20144;-68
2021/05/19 10:23:41;;;;;;;2.08;1.88;;;20.60;40.80;;;;;;5043993;28;20049;-69
2021/05/19 10:26:13;;;;;;;5.25;1.90;;;20.60;37.60;;;;;;5040731;28;20041;-69
2021/05/19 10:28:41;;;;;;;2.58;1.17;;;20.80;36.40;;;;;;5039654;28;20490;-70
2021/05/19 10:31:41;;;;;;;3.00;1.08;;;21.00;35.50;;;;;;5033370;28;20038;-69
2021/05/19 10:34:09;;;;;;;2.83;1.48;;;21.10;33.20;;;;;;5010596;28;20444;-70
2021/05/19 10:36:37;;;;;;;4.50;1.75;;;21.10;35.00;;;;;;5035331;28;20112;-69
2021/05/19 10:39:11;;;;;;;2.92;1.60;;;21.10;37.00;;;;;;5068166;28;20033;-69
2021/05/19 10:41:51;;;;;;;3.78;1.63;;;21.20;36.30;;;;;;5034519;28;20037;-69
2021/05/19 10:44:18;;;;;;;3.10;1.50;;;21.40;37.00;;;;;;5052982;28;20052;-69
2021/05/19 10:46:53;;;;;;;2.92;1.40;;;21.50;33.80;;;;;;5034696;28;20032;-69
2021/05/19 10:49:20;;;;;;;5.47;1.33;;;21.60;34.30;;;;;;5037214;28;20041;-70
2021/05/19 10:52:05;;;;;;;4.32;1.90;;;22.10;34.00;;;;;;5038323;28;20124;-69
2021/05/19 10:57:52;;;;;;;2.10;1.17;;;22.10;27.40;;;;;;5015377;28;20121;-69
2021/05/19 11:00:21;;;;;;;0.30;0.17;;;22.30;31.00;;;;;;5034160;28;20087;-70
2021/05/19 11:03:04;;;;;;;0.40;0.40;;;;;;;;;;5038952;28;20079;-69
2021/05/19 11:05:38;;;;;;;0.55;0.17;;;23.40;22.30;;;;;;5001264;28;20044;-67
2021/05/19 11:10:46;;;;;;;0.80;0.47;;;24.70;21.90;;;;;;5035596;28;20059;-68
2021/05/19 11:13:12;;;;;;;1.45;0.20;;;24.80;21.60;;;;;;5043662;28;20045;-68
2021/05/19 11:18:22;;;;;;;2.15;0.20;;;24.80;19.30;;;;;;5035256;28;20172;-67
2021/05/19 11:20:49;;;;;;;2.73;0.53;;;24.10;20.40;;;;;;5040679;28;20033;-67
2021/05/19 11:23:16;;;;;;;0.88;0.30;;;24.50;21.20;;;;;;5032287;28;20883;-67
2021/05/19 11:25:44;;;;;;;2.67;0.80;;;23.70;22.60;;;;;;5042471;28;20134;-67
2021/05/19 11:28:10;;;;;;;0.68;0.50;;;24.00;23.00;;;;;;5035699;28;20041;-68
2021/05/19 11:30:36;;;;;;;1.00;0.52;;;24.50;22.60;;;;;;5040684;28;20056;-67
2021/05/19 11:33:11;;;;;;;0.30;0.30;;;24.90;21.00;;;;;;5031329;28;20487;-67
2021/05/19 11:35:37;;;;;;;2.88;0.45;;;25.20;19.70;;;;;;5044708;28;20033;-67
2021/05/19 11:38:09;;;;;;;1.10;0.28;;;26.20;21.20;;;;;;5030849;28;20045;-67
2021/05/19 11:40:43;;;;;;;0.45;0.30;;;26.90;20.10;;;;;;5038357;28;20037;-68
2021/05/19 11:43:10;;;;;;;0.22;0.22;;;27.10;18.10;;;;;;5037015;28;20044;-68
2021/05/19 11:45:36;;;;;;;2.50;0.47;;;27.30;18.60;;;;;;5042615;28;20526;-69
2021/05/19 11:48:03;;;;;;;0.13;0.13;;;27.40;19.10;;;;;;5034901;28;20069;-68
2021/05/19 11:50:31;;;;;;;0.30;0.30;;;27.20;17.50;;;;;;5042071;28;20055;-68
2021/05/19 11:53:00;;;;;;;0.75;0.30;;;27.20;17.10;;;;;;5031094;28;20040;-68
2021/05/19 11:55:40;;;;;;;0.77;0.40;;;27.10;18.20;;;;;;5038232;28;20100;-68
2021/05/19 11:58:26;;;;;;;1.48;0.45;;;27.00;16.90;;;;;;5034306;28;20088;-69
2021/05/19 12:01:07;;;;;;;0.38;0.38;;;27.30;16.60;;;;;;5037633;28;20045;-69
2021/05/19 12:03:37;;;;;;;2.30;0.52;;;27.00;14.80;;;;;;4995133;28;20037;-68
2021/05/19 12:06:07;;;;;;;2.13;0.38;;;27.10;16.50;;;;;;5040489;28;20033;-68
2021/05/19 12:08:37;;;;;;;2.00;0.30;;;27.30;18.10;;;;;;5039886;28;20037;-68
2021/05/19 12:11:20;;;;;;;0.73;0.38;;;27.20;17.60;;;;;;5052651;28;20167;-68
2021/05/19 12:13:55;;;;;;;1.58;0.40;;;27.50;17.40;;;;;;5033633;28;20107;-69
2021/05/19 12:16:28;;;;;;;0.88;0.20;;;27.50;16.80;;;;;;5035719;28;20037;-68
2021/05/19 12:19:07;;;;;;;0.60;0.60;;;27.70;16.20;;;;;;5032004;28;20057;-68
2021/05/19 12:21:34;;;;;;;0.10;0.10;;;27.80;14.60;;;;;;5001902;28;20038;-67
2021/05/19 12:24:00;;;;;;;1.95;0.30;;;27.50;16.90;;;;;;5039439;28;20068;-67
2021/05/19 12:26:27;;;;;;;0.50;0.38;;;27.40;15.40;;;;;;5035743;28;20504;-67
2021/05/19 12:28:54;;;;;;;1.05;0.20;;;27.50;15.40;;;;;;5035144;28;20052;-67
2021/05/19 12:31:29;;;;;;;0.68;0.32;;;27.90;16.40;;;;;;5041890;28;20037;-67
2021/05/19 12:33:55;;;;;;;0.55;0.30;;;28.20;15.20;;;;;;5033899;28;20120;-67
2021/05/19 12:36:31;;;;;;;0.55;0.40;;;27.90;16.40;;;;;;5036264;28;20131;-67
2021/05/19 12:39:00;;;;;;;3.10;0.32;;;28.10;14.90;;;;;;5038473;28;20388;-67
2021/05/19 12:41:46;;;;;;;3.30;0.40;;;28.40;16.30;;;;;;5039330;28;20029;-68
2021/05/19 12:44:14;;;;;;;0.20;0.20;;;28.50;15.10;;;;;;5032924;28;20388;-69
2021/05/19 12:46:54;;;;;;;1.85;0.28;;;28.60;15.20;;;;;;5032656;28;20043;-68
2021/05/19 12:49:21;;;;;;;1.25;0.20;;;28.70;19.10;;;;;;5052215;28;20034;-68
2021/05/19 12:51:55;;;;;;;1.45;0.30;;;28.70;32.70;;;;;;5034967;28;20529;-68
2021/05/19 12:54:28;;;;;;;2.15;0.43;;;28.90;15.50;;;;;;5038244;28;20378;-68
2021/05/19 12:57:04;;;;;;;0.50;0.35;;;29.30;14.00;;;;;;5030126;28;20052;-68
2021/05/19 12:59:51;;;;;;;0.35;0.35;;;;;;;;;;5017920;28;20037;-69
2021/05/19 13:02:17;;;;;;;0.40;0.40;;;30.50;13.80;;;;;;5030793;28;20048;-69
2021/05/19 13:04:49;;;;;;;0.50;0.40;;;32.70;12.70;;;;;;5036603;28;20048;-67
2021/05/19 13:07:17;;;;;;;1.88;0.38;;;32.90;12.80;;;;;;5033159;28;20046;-67
2021/05/19 13:09:45;;;;;;;0.35;0.28;;;34.50;14.80;;;;;;5036454;28;20046;-69
2021/05/19 13:12:23;;;;;;;0.10;0.10;;;35.60;12.20;;;;;;5031173;28;20060;-68